createdAt,value
2022-10-29T00:02:20.004Z,32.78
2022-10-29T00:04:46.636Z,32.47
2022-10-29T00:07:13.349Z,29.50
2022-10-29T00:13:48.571Z,29.75
2022-10-29T00:16:19.107Z,36.45
2022-10-29T00:18:46.475Z,26.08
2022-10-29T00:21:18.780Z,29.60
2022-10-29T00:23:46.230Z,31.65
2022-10-29T00:26:13.559Z,33.63
2022-10-29T00:28:40.526Z,31.67
2022-10-29T00:31:12.959Z,36.05
2022-10-29T00:33:39.889Z,31.35
2022-10-29T00:36:10.354Z,29.27
2022-10-29T00:38:37.094Z,32.08
2022-10-29T00:41:06.034Z,36.35
2022-10-29T00:43:35.512Z,33.03
2022-10-29T00:46:09.268Z,27.33
2022-10-29T00:48:40.627Z,26.45
2022-10-29T00:51:09.755Z,36.58
2022-10-29T00:53:42.479Z,30.70
2022-10-29T00:56:09.423Z,34.03
2022-10-29T00:58:36.109Z,31.40
2022-10-29T01:01:02.919Z,39.47
2022-10-29T01:03:29.551Z,29.83
2022-10-29T01:06:03.633Z,30.95
2022-10-29T01:08:30.259Z,32.27
2022-10-29T01:11:26.506Z,27.10
2022-10-29T01:14:07.600Z,30.48
2022-10-29T01:16:54.478Z,29.42
2022-10-29T01:19:53.085Z,29.92
2022-10-29T01:22:41.622Z,26.27
2022-10-29T01:25:29.631Z,39.88
2022-10-29T01:28:24.929Z,38.08
2022-10-29T01:31:13.760Z,34.42
2022-10-29T01:34:04.781Z,40.25
2022-10-29T01:37:00.244Z,29.50
2022-10-29T01:39:33.021Z,31.67
2022-10-29T01:42:24.977Z,34.10
2022-10-29T01:44:58.339Z,32.17
2022-10-29T01:47:37.310Z,33.67
2022-10-29T01:50:08.688Z,31.73
2022-10-29T01:52:37.257Z,40.15
2022-10-29T01:55:04.634Z,34.20
2022-10-29T01:57:37.273Z,34.90
2022-10-29T02:00:11.725Z,39.58
2022-10-29T02:03:00.195Z,34.60
2022-10-29T02:05:55.002Z,31.60
2022-10-29T02:08:50.505Z,33.63
2022-10-29T02:11:50.749Z,31.30
2022-10-29T02:14:33.230Z,32.38
2022-10-29T02:17:00.751Z,46.95
2022-10-29T02:19:31.744Z,31.17
2022-10-29T02:21:58.369Z,32.38
2022-10-29T02:24:25.638Z,31.95
2022-10-29T02:26:52.785Z,34.78
2022-10-29T02:29:19.603Z,37.20
2022-10-29T02:31:46.213Z,29.60
2022-10-29T02:34:13.055Z,35.95
2022-10-29T02:36:39.677Z,41.83
2022-10-29T02:39:06.351Z,32.85
2022-10-29T02:41:33.002Z,36.38
2022-10-29T02:43:59.722Z,30.33
2022-10-29T02:46:26.697Z,32.72
2022-10-29T02:48:53.330Z,41.53
2022-10-29T02:51:19.951Z,41.45
2022-10-29T02:53:46.728Z,33.35
2022-10-29T02:56:13.403Z,29.50
2022-10-29T02:58:43.228Z,44.08
2022-10-29T03:01:09.981Z,41.65
2022-10-29T03:03:36.774Z,40.97
2022-10-29T03:06:05.034Z,38.97
2022-10-29T03:08:32.339Z,38.30
2022-10-29T03:10:58.983Z,41.22
2022-10-29T03:13:25.721Z,39.60
2022-10-29T03:15:52.785Z,34.75
2022-10-29T03:18:19.446Z,34.22
2022-10-29T03:20:47.418Z,35.42
2022-10-29T03:23:14.131Z,37.00
2022-10-29T03:25:40.827Z,34.65
2022-10-29T03:28:07.584Z,38.15
2022-10-29T03:30:34.317Z,27.98
2022-10-29T03:33:01.074Z,37.28
2022-10-29T03:35:28.051Z,39.90
2022-10-29T03:37:54.680Z,36.05
2022-10-29T03:40:21.425Z,38.05
2022-10-29T03:42:48.036Z,40.65
2022-10-29T03:45:18.056Z,44.13
2022-10-29T03:47:44.712Z,43.53
2022-10-29T03:50:11.411Z,45.05
2022-10-29T03:52:38.274Z,37.20
2022-10-29T03:55:05.912Z,40.38
2022-10-29T03:57:32.575Z,42.45
2022-10-29T04:00:00.575Z,42.03
2022-10-29T04:02:27.616Z,48.10
2022-10-29T04:04:54.351Z,39.03
2022-10-29T04:07:21.029Z,45.97
2022-10-29T04:09:47.689Z,46.95
2022-10-29T04:12:14.307Z,47.97
2022-10-29T04:14:45.372Z,40.67
2022-10-29T04:17:12.457Z,38.22
2022-10-29T04:19:39.086Z,39.92
2022-10-29T04:30:29.751Z,42.60
2022-10-29T04:33:00.412Z,40.03
2022-10-29T04:35:29.093Z,46.95
2022-10-29T04:37:55.963Z,40.17
2022-10-29T04:40:24.457Z,40.85
2022-10-29T04:42:54.391Z,49.60
2022-10-29T04:45:21.205Z,48.55
2022-10-29T04:47:47.874Z,42.72
2022-10-29T04:50:14.625Z,44.08
2022-10-29T04:52:41.334Z,42.92
2022-10-29T04:55:11.213Z,49.88
2022-10-29T04:57:37.831Z,49.33
2022-10-29T05:00:04.946Z,52.78
2022-10-29T05:02:31.570Z,44.35
2022-10-29T05:04:58.209Z,50.60
2022-10-29T05:07:24.839Z,50.30
2022-10-29T05:09:51.470Z,49.88
2022-10-29T05:12:18.186Z,43.35
2022-10-29T05:14:44.797Z,48.78
2022-10-29T05:17:11.461Z,42.42
2022-10-29T05:19:38.125Z,47.92
2022-10-29T05:22:04.804Z,54.35
2022-10-29T05:24:31.430Z,59.22
2022-10-29T05:26:58.169Z,59.35
2022-10-29T05:29:24.801Z,58.53
2022-10-29T05:31:54.399Z,59.80
2022-10-29T05:34:21.464Z,62.25
2022-10-29T05:36:48.187Z,55.55
2022-10-29T05:39:15.091Z,48.92
2022-10-29T05:41:41.755Z,43.38
2022-10-29T05:44:08.433Z,48.10
2022-10-29T05:46:35.762Z,56.25
2022-10-29T05:49:02.648Z,49.03
2022-10-29T05:51:29.756Z,45.30
2022-10-29T05:53:56.411Z,44.45
2022-10-29T05:56:23.145Z,60.60
2022-10-29T05:58:50.416Z,45.00
2022-10-29T06:01:20.048Z,55.42
2022-10-29T06:03:47.138Z,58.03
2022-10-29T06:06:13.872Z,47.13
2022-10-29T06:08:40.526Z,51.85
2022-10-29T06:11:07.319Z,51.92
2022-10-29T06:13:33.997Z,59.17
2022-10-29T06:16:00.772Z,56.95
2022-10-29T06:18:27.977Z,45.88
2022-10-29T06:20:57.594Z,56.22
2022-10-29T06:23:24.293Z,52.63
2022-10-29T06:25:51.013Z,46.50
2022-10-29T06:28:19.240Z,58.80
2022-10-29T06:30:48.961Z,54.35
2022-10-29T06:33:17.301Z,45.75
2022-10-29T06:35:43.957Z,44.25
2022-10-29T06:38:12.410Z,39.33
2022-10-29T06:40:40.664Z,47.10
2022-10-29T06:43:12.100Z,51.10
2022-10-29T06:45:38.981Z,50.03
2022-10-29T06:48:06.031Z,37.25
2022-10-29T06:50:32.715Z,39.10
2022-10-29T06:53:05.926Z,46.53
2022-10-29T06:55:35.991Z,40.83
2022-10-29T06:58:12.711Z,53.42
2022-10-29T07:00:40.580Z,39.20
2022-10-29T07:03:08.655Z,41.80
2022-10-29T07:05:36.184Z,44.22
2022-10-29T07:08:02.878Z,37.88
2022-10-29T07:10:31.917Z,46.72
2022-10-29T07:12:58.900Z,45.47
2022-10-29T07:15:30.687Z,40.28
2022-10-29T07:18:00.246Z,47.95
2022-10-29T07:20:31.100Z,50.25
2022-10-29T07:22:58.192Z,45.83
2022-10-29T07:25:25.266Z,36.75
2022-10-29T07:27:52.356Z,39.17
2022-10-29T07:30:19.752Z,41.03
2022-10-29T07:32:46.717Z,40.85
2022-10-29T07:35:13.635Z,47.92
2022-10-29T07:37:40.330Z,38.70
2022-10-29T07:40:07.822Z,36.75
2022-10-29T07:42:34.452Z,35.05
2022-10-29T07:45:01.108Z,38.15
2022-10-29T07:47:28.257Z,52.00
2022-10-29T07:50:01.063Z,34.70
2022-10-29T07:52:28.040Z,35.88
2022-10-29T07:54:54.784Z,37.50
2022-10-29T07:57:22.361Z,34.13
2022-10-29T07:59:50.159Z,42.00
2022-10-29T08:02:16.837Z,32.08
2022-10-29T08:04:43.514Z,32.88
2022-10-29T08:07:10.193Z,38.20
2022-10-29T08:09:36.847Z,32.05
2022-10-29T08:12:04.971Z,40.60
2022-10-29T08:14:31.578Z,32.60
2022-10-29T08:16:58.262Z,28.00
2022-10-29T08:19:25.056Z,30.02
2022-10-29T08:21:51.692Z,29.38
2022-10-29T08:24:19.746Z,32.50
2022-10-29T08:26:46.413Z,25.00
2022-10-29T08:29:13.016Z,28.50
2022-10-29T08:31:40.974Z,25.98
2022-10-29T08:34:11.071Z,26.48
2022-10-29T08:36:38.380Z,24.77
2022-10-29T08:39:05.004Z,33.90
2022-10-29T08:42:27.967Z,30.45
2022-10-29T08:45:13.419Z,24.67
2022-10-29T08:50:47.029Z,33.80
2022-10-29T08:53:24.069Z,38.67
2022-10-29T08:55:51.949Z,30.90
2022-10-29T08:58:42.672Z,31.15
2022-10-29T09:01:12.939Z,40.50
2022-10-29T09:03:39.838Z,30.17
2022-10-29T09:06:34.232Z,27.67
2022-10-29T09:09:29.061Z,27.13
2022-10-29T09:12:10.950Z,32.58
2022-10-29T09:15:15.637Z,44.47
2022-10-29T09:18:16.847Z,28.38
2022-10-29T09:21:01.815Z,28.00
2022-10-29T09:24:09.717Z,28.92
2022-10-29T09:26:59.112Z,28.83
2022-10-29T09:29:49.907Z,29.38
2022-10-29T09:32:29.755Z,30.52
2022-10-29T09:35:02.812Z,30.90
2022-10-29T09:38:05.573Z,30.90
2022-10-29T09:40:36.861Z,29.48
2022-10-29T09:43:32.969Z,28.77
2022-10-29T09:46:27.303Z,35.22
2022-10-29T09:49:01.124Z,30.83
2022-10-29T09:51:58.202Z,28.85
2022-10-29T09:54:27.228Z,30.10
2022-10-29T09:56:56.109Z,30.38
2022-10-29T09:59:32.129Z,30.17
2022-10-29T10:01:59.376Z,29.92
2022-10-29T10:04:34.287Z,28.88
2022-10-29T10:07:09.558Z,30.08
2022-10-29T10:09:55.168Z,30.23
2022-10-29T10:12:28.439Z,46.83
2022-10-29T10:15:26.817Z,29.95
2022-10-29T10:18:02.507Z,36.70
2022-10-29T10:20:46.590Z,32.83
2022-10-29T10:23:28.106Z,76.05
2022-10-29T10:26:00.469Z,28.88
2022-10-29T10:28:34.414Z,28.30
2022-10-29T10:31:04.231Z,29.17
2022-10-29T10:33:34.352Z,33.78
2022-10-29T10:36:10.866Z,27.00
2022-10-29T10:38:46.432Z,27.67
2022-10-29T10:41:14.883Z,27.38
2022-10-29T10:43:44.539Z,32.53
2022-10-29T10:46:22.118Z,27.45
2022-10-29T10:49:05.308Z,27.40
2022-10-29T10:51:35.685Z,34.55
2022-10-29T10:54:25.501Z,28.23
2022-10-29T10:57:17.000Z,29.35
2022-10-29T11:00:00.613Z,30.10
2022-10-29T11:02:33.660Z,30.13
2022-10-29T11:05:08.814Z,29.13
2022-10-29T11:07:41.455Z,60.78
2022-10-29T11:10:12.041Z,31.75
2022-10-29T11:12:50.189Z,35.50
2022-10-29T11:15:23.134Z,27.92
2022-10-29T11:18:12.262Z,30.15
2022-10-29T11:20:43.721Z,31.45
2022-10-29T11:23:44.558Z,31.20
2022-10-29T11:26:29.489Z,32.30
2022-10-29T11:29:14.331Z,37.60
2022-10-29T11:31:43.488Z,29.80
2022-10-29T11:34:20.498Z,32.83
2022-10-29T11:37:01.766Z,31.23
2022-10-29T11:39:45.252Z,32.80
2022-10-29T11:42:13.532Z,28.92
2022-10-29T11:44:40.859Z,27.85
2022-10-29T11:47:19.774Z,29.13
2022-10-29T11:49:57.386Z,32.03
2022-10-29T11:52:35.651Z,30.17
2022-10-29T11:55:27.346Z,29.90
2022-10-29T11:58:16.517Z,31.70
2022-10-29T12:01:09.317Z,30.58
2022-10-29T12:03:54.781Z,30.40
2022-10-29T12:06:56.866Z,30.65
2022-10-29T12:09:57.341Z,30.50
2022-10-29T12:12:52.131Z,29.98
2022-10-29T12:15:41.257Z,31.23
2022-10-29T12:18:26.692Z,32.05
2022-10-29T12:21:24.813Z,30.70
2022-10-29T12:24:21.181Z,32.05
2022-10-29T12:27:03.160Z,30.30
2022-10-29T12:29:39.913Z,34.42
2022-10-29T12:32:16.904Z,33.80
2022-10-29T12:35:02.708Z,32.60
2022-10-29T12:37:57.585Z,31.38
2022-10-29T12:40:33.147Z,31.55
2022-10-29T12:43:06.425Z,31.50
2022-10-29T12:46:06.823Z,30.75
2022-10-29T12:48:53.390Z,39.95
2022-10-29T12:51:38.888Z,32.00
2022-10-29T12:54:25.929Z,30.17
2022-10-29T12:56:52.921Z,30.40
2022-10-29T12:59:28.547Z,30.05
2022-10-29T13:02:12.436Z,33.10
2022-10-29T13:05:11.649Z,30.63
2022-10-29T13:07:47.382Z,29.40
2022-10-29T13:10:27.239Z,31.20
2022-10-29T13:13:05.093Z,34.38
2022-10-29T13:15:43.140Z,32.22
2022-10-29T13:18:12.821Z,34.15
2022-10-29T13:20:48.369Z,29.80
2022-10-29T13:23:24.272Z,34.67
2022-10-29T13:25:54.918Z,34.03
2022-10-29T13:28:21.531Z,32.55
2022-10-29T13:31:12.817Z,31.27
2022-10-29T13:33:39.433Z,32.90
2022-10-29T13:36:20.953Z,35.22
2022-10-29T13:39:04.731Z,33.35
2022-10-29T13:41:49.412Z,30.38
2022-10-29T13:44:24.965Z,30.45
2022-10-29T13:47:01.013Z,30.73
2022-10-29T13:49:36.559Z,30.38
2022-10-29T13:52:21.693Z,33.38
2022-10-29T13:55:06.956Z,32.92
2022-10-29T13:57:35.950Z,32.80
2022-10-29T14:00:28.826Z,32.38
2022-10-29T14:03:16.567Z,32.42
2022-10-29T14:05:51.641Z,33.42
2022-10-29T14:08:40.116Z,33.30
2022-10-29T14:11:38.244Z,33.95
2022-10-29T14:14:06.457Z,36.45
2022-10-29T14:16:33.643Z,34.83
2022-10-29T14:19:14.674Z,33.95
2022-10-29T14:21:41.328Z,32.60
2022-10-29T14:24:09.956Z,38.30
2022-10-29T14:26:38.990Z,33.03
2022-10-29T14:29:22.781Z,35.28
2022-10-29T14:32:20.590Z,35.17
2022-10-29T14:34:51.608Z,34.05
2022-10-29T14:37:30.283Z,31.02
2022-10-29T14:40:01.009Z,33.13
2022-10-29T14:42:32.256Z,32.53
2022-10-29T14:45:02.823Z,33.83
2022-10-29T14:47:33.797Z,44.38
2022-10-29T14:50:04.185Z,32.95
2022-10-29T14:52:39.473Z,32.45
2022-10-29T14:55:17.768Z,36.05
2022-10-29T14:57:49.816Z,35.00
2022-10-29T15:00:28.478Z,46.65
2022-10-29T15:02:59.158Z,41.63
2022-10-29T15:05:27.512Z,39.40
2022-10-29T15:08:09.415Z,41.40
2022-10-29T15:10:50.507Z,36.65
2022-10-29T15:13:29.252Z,41.15
2022-10-29T15:16:06.345Z,38.50
2022-10-29T15:18:37.595Z,36.72
2022-10-29T15:21:05.486Z,34.72
2022-10-29T15:23:55.294Z,34.83
2022-10-29T15:26:22.169Z,35.88
2022-10-29T15:28:54.436Z,35.45
2022-10-29T15:31:42.596Z,37.40
2022-10-29T15:34:15.113Z,33.70
2022-10-29T15:36:52.619Z,33.70
2022-10-29T15:39:26.576Z,33.72
2022-10-29T15:41:57.570Z,35.10
2022-10-29T15:44:35.439Z,38.05
2022-10-29T15:47:20.251Z,38.35
2022-10-29T15:49:46.933Z,35.78
2022-10-29T15:52:18.755Z,34.80
2022-10-29T15:54:46.703Z,28.77
2022-10-29T15:57:15.093Z,28.30
2022-10-29T15:59:42.298Z,27.95
2022-10-29T16:02:18.114Z,28.77
2022-10-29T16:04:45.040Z,35.20
2022-10-29T16:07:16.640Z,33.20
2022-10-29T16:09:52.141Z,31.73
2022-10-29T16:12:18.924Z,36.97
2022-10-29T16:14:45.762Z,74.72
2022-10-29T16:17:21.492Z,76.00
2022-10-29T16:19:48.292Z,44.08
2022-10-29T16:22:27.057Z,37.13
2022-10-29T16:24:53.943Z,33.08
2022-10-29T16:27:20.572Z,32.42
2022-10-29T16:29:47.310Z,39.67
2022-10-29T16:32:16.000Z,30.95
2022-10-29T16:34:43.284Z,32.22
2022-10-29T16:37:13.335Z,46.05
2022-10-29T16:39:40.562Z,36.03
2022-10-29T16:42:07.633Z,49.10
2022-10-29T16:44:37.455Z,41.42
2022-10-29T16:47:04.126Z,37.60
2022-10-29T16:49:30.772Z,32.55
2022-10-29T16:51:57.359Z,26.70
2022-10-29T16:54:24.017Z,48.47
2022-10-29T16:56:52.612Z,47.90
2022-10-29T16:59:19.284Z,37.47
2022-10-29T17:01:47.522Z,36.00
2022-10-29T17:04:14.209Z,44.70
2022-10-29T17:06:40.876Z,28.33
2022-10-29T17:09:07.523Z,32.22
2022-10-29T17:11:34.517Z,27.48
2022-10-29T17:14:01.221Z,43.85
2022-10-29T17:16:27.905Z,41.45
2022-10-29T17:18:54.841Z,123.80
2022-10-29T17:21:21.513Z,90.55
2022-10-29T17:23:48.131Z,64.00
2022-10-29T17:26:14.842Z,56.30
2022-10-29T17:28:41.537Z,49.05
2022-10-29T17:31:10.036Z,44.38
2022-10-29T17:33:37.161Z,53.80
2022-10-29T17:36:10.976Z,59.67
2022-10-29T17:38:37.644Z,57.60
2022-10-29T17:41:04.509Z,57.05
2022-10-29T17:43:31.179Z,49.20
2022-10-29T17:45:57.965Z,56.28
2022-10-29T17:48:25.246Z,40.08
2022-10-29T17:50:54.154Z,40.53
2022-10-29T17:53:21.919Z,48.65
2022-10-29T17:55:48.714Z,46.40
2022-10-29T17:58:18.207Z,37.83
2022-10-29T18:00:45.907Z,46.83
2022-10-29T18:03:12.694Z,45.08
2022-10-29T18:05:39.376Z,47.70
2022-10-29T18:08:06.329Z,39.80
2022-10-29T18:10:34.208Z,41.67
2022-10-29T18:13:01.210Z,33.38
2022-10-29T18:15:28.085Z,36.88
2022-10-29T18:17:54.737Z,33.05
2022-10-29T18:20:21.407Z,31.42
2022-10-29T18:22:51.942Z,36.67
2022-10-29T18:25:21.508Z,30.27
2022-10-29T18:27:48.353Z,38.85
2022-10-29T18:30:16.031Z,41.30
2022-10-29T18:32:42.773Z,28.70
2022-10-29T18:35:10.182Z,36.90
2022-10-29T18:37:36.815Z,33.30
2022-10-29T18:40:03.656Z,44.13
2022-10-29T18:42:31.314Z,56.33
2022-10-29T18:44:57.974Z,107.75
2022-10-29T18:47:24.604Z,55.67
2022-10-29T18:49:51.212Z,50.55
2022-10-29T18:52:17.875Z,44.75
2022-10-29T18:54:44.553Z,40.70
2022-10-29T18:57:15.344Z,38.63
2022-10-29T18:59:45.990Z,32.95
2022-10-29T19:02:12.740Z,36.80
2022-10-29T19:04:39.465Z,37.38
2022-10-29T19:07:06.148Z,31.38
2022-10-29T19:09:32.800Z,34.58
2022-10-29T19:11:59.736Z,30.40
2022-10-29T19:14:26.578Z,36.38
2022-10-29T19:16:53.236Z,27.23
2022-10-29T19:19:22.930Z,35.72
2022-10-29T19:21:50.673Z,34.55
2022-10-29T19:24:17.611Z,33.58
2022-10-29T19:26:44.380Z,32.22
2022-10-29T19:29:11.583Z,40.10
2022-10-29T19:31:40.538Z,29.08
2022-10-29T19:34:08.192Z,31.42
2022-10-29T19:36:36.387Z,31.98
2022-10-29T19:39:03.866Z,29.63
2022-10-29T19:41:30.644Z,29.50
2022-10-29T19:44:04.506Z,32.65
2022-10-29T19:46:31.357Z,25.92
2022-10-29T19:48:58.745Z,34.05
2022-10-29T19:51:25.479Z,30.20
2022-10-29T19:53:52.500Z,32.42
2022-10-29T19:56:20.566Z,23.73
2022-10-29T19:58:47.301Z,32.17
2022-10-29T20:01:16.556Z,33.42
2022-10-29T20:03:44.284Z,31.42
2022-10-29T20:06:12.689Z,27.88
2022-10-29T20:08:39.525Z,29.90
2022-10-29T20:11:06.712Z,26.08
2022-10-29T20:13:33.715Z,28.90
2022-10-29T20:16:11.373Z,30.55
2022-10-29T20:18:38.479Z,29.15
2022-10-29T20:24:03.035Z,33.63
2022-10-29T20:26:30.983Z,41.35
2022-10-29T20:28:57.760Z,28.80
2022-10-29T20:31:30.449Z,28.25
2022-10-29T20:33:59.494Z,33.33
2022-10-29T20:36:32.809Z,33.75
2022-10-29T20:39:00.205Z,33.45
2022-10-29T20:41:27.883Z,31.00
2022-10-29T20:43:59.516Z,27.52
2022-10-29T20:46:26.807Z,32.10
2022-10-29T20:48:53.522Z,27.80
2022-10-29T20:51:20.512Z,27.27
2022-10-29T20:53:47.130Z,27.17
2022-10-29T20:56:16.284Z,28.80
2022-10-29T20:58:43.590Z,27.67
2022-10-29T21:01:13.615Z,33.40
2022-10-29T21:03:40.853Z,31.48
2022-10-29T21:06:14.014Z,29.08
2022-10-29T21:08:43.719Z,32.15
2022-10-29T21:11:12.437Z,32.35
2022-10-29T21:13:46.503Z,34.72
2022-10-29T21:16:26.288Z,35.30
2022-10-29T21:18:55.335Z,29.45
2022-10-29T21:21:22.885Z,47.63
2022-10-29T21:23:49.615Z,50.17
2022-10-29T21:26:18.966Z,47.17
2022-10-29T21:28:45.883Z,40.30
2022-10-29T21:31:12.715Z,36.63
2022-10-29T21:33:39.886Z,41.55
2022-10-29T21:36:06.816Z,30.23
2022-10-29T21:38:33.935Z,26.98
2022-10-29T21:41:02.062Z,31.40
2022-10-29T21:43:29.097Z,51.00
2022-10-29T21:45:56.158Z,53.03
2022-10-29T21:48:26.587Z,35.60
2022-10-29T21:51:19.593Z,34.25
2022-10-29T21:53:46.569Z,28.33
2022-10-29T21:56:14.512Z,27.42
2022-10-29T21:58:41.847Z,28.00
2022-10-29T22:01:11.633Z,27.38
2022-10-29T22:03:42.999Z,27.52
2022-10-29T22:06:15.680Z,29.42
2022-10-29T22:08:42.799Z,31.50
2022-10-29T22:11:09.807Z,33.00
2022-10-29T22:13:37.356Z,30.17
2022-10-29T22:16:06.524Z,29.73
2022-10-29T22:18:33.808Z,28.67
2022-10-29T22:21:05.342Z,28.30
2022-10-29T22:23:32.008Z,27.73
2022-10-29T22:25:58.690Z,39.08
2022-10-29T22:28:25.389Z,27.67
2022-10-29T22:31:00.170Z,29.17
2022-10-29T22:33:27.844Z,28.35
2022-10-29T22:35:54.540Z,28.77
2022-10-29T22:38:21.529Z,30.58
2022-10-29T22:40:48.609Z,29.75
2022-10-29T22:43:15.875Z,28.73
2022-10-29T22:45:45.026Z,28.27
2022-10-29T22:48:12.066Z,28.40
2022-10-29T22:50:39.073Z,31.55
2022-10-29T22:53:05.751Z,32.40
2022-10-29T22:55:32.442Z,30.67
2022-10-29T22:57:59.084Z,32.85
2022-10-29T23:00:25.796Z,28.02
2022-10-29T23:02:52.418Z,28.10
2022-10-29T23:05:19.107Z,27.05
2022-10-29T23:07:45.728Z,35.15
2022-10-29T23:10:12.367Z,31.48
2022-10-29T23:12:39.044Z,29.25
2022-10-29T23:15:08.304Z,29.42
2022-10-29T23:17:35.051Z,28.05
2022-10-29T23:20:02.369Z,30.15
2022-10-29T23:22:28.990Z,29.05
2022-10-29T23:24:55.656Z,26.83
2022-10-29T23:27:22.264Z,31.90
2022-10-29T23:29:48.991Z,26.50
2022-10-29T23:32:15.633Z,27.95
2022-10-29T23:34:42.235Z,31.98
2022-10-29T23:37:10.136Z,25.73
2022-10-29T23:39:37.199Z,26.13
2022-10-29T23:42:04.242Z,26.55
2022-10-29T23:44:30.919Z,31.92
2022-10-29T23:46:57.552Z,28.67
2022-10-29T23:49:24.293Z,24.83
2022-10-29T23:51:50.920Z,27.42
2022-10-29T23:54:17.564Z,33.45
2022-10-29T23:56:44.255Z,30.33
2022-10-29T23:59:10.865Z,25.60
